Kezdőlap
METAR-TAF:

METAR-TAF

Repülőterek :

Iowa City Municipal Airport

Iowa City, Iowa, Amerikai Egyesült Államok

földrajzi szélesség: 41-37-58N, földrajzi hosszúság: 091-32-35W, magasság: 203 m

Jelenlegi meteorológiai megfigyelések

A jelentés 29 perccel ezelõtt készült, 10:52 UTC
Északkeleti szél 3 kt
Hőmérséklet 21°C
Páratartalom 88%
Légköri nyomás 1019 hPa
Látótávolság: 16.1 km
Szórványos felhőzet 7000 lábon

METAR: KIOW 031052Z AUTO 04003KT 10SM SCT070 21/19 A3008 RMK AO2 SLP179 T02110189 $

Idő: 06:21 (11:21 UTC)


TAF: hiányzik

Meteorológiai megfigyelések és előrejelzések több, mint 4000 repülőtéren (METAR és TAF jelentéseket).

A térképen piros és sárga pontok jelzik az elérhető meteorológiai állomásokat.

Mozgassa az egeret a pont fölött, hogy megjelenjen az állomás neve.

Azután kattintson az időjárási megfigyelések és előrejelzések megtekintéséhez.

A térkép megváltoztatása: kattintson a fekete keresztel jelölt zöld gombra ráközelítéshez, a vonallal jelölt zöld gombra távolításhoz, vagy a zöld nyilakra a szomszédos térképek eléréséhez.


METAR-TAF: